Hlavní strana
METAR-TAF:

METAR-TAF

Letiště :

Bloomington / Normal, Illinois, Spojené státy americké

zeměpisná šířka: 40-29N, zeměpisná délka: 088-55W, výška: 267 m

Aktuální stav počasí

Zpráva byla vytvořena před 41 minutami, v 02:56 UTC
Západoseverozápadní vítr 6 kt
Teplota -7°C
Vlhkost vzduchu 73%
Tlak 1033 hPa
Viditelnost: 16.1 km
Jasno

METAR: KBMI 140256Z 29006KT 10SM CLR M07/M11 A3051 RMK AO2 SLP359 T10721111 51019

Čas: 21:37 (03:37 UTC)

Předpověď počasí

Zpráva byla vytvořena před 4 hodinami a 17 minutami, v 23:20 UTC
Předpověď platná od 14 v 00 UTC do 14 v 24 UTC
vítr z různých směrů 5 kt
Viditelnost: 10 km
Jasno

TAF: KBMI 132320Z 1400/1424 VRB05KT P6SM SKC

Stav a předpovědi počasí z více než 4 000 letišť (zprávy METAR a TAF).

Červené a žluté tečky na mapě představují dostupné meteorologické stanice.

Když kurzor umístíte na tečku, zobrazí se název stanice.

Pak kliknutím zobrazíte stav a předpověď počasí.

Chcete-li změnit mapu, kliknutím na zelené tlačítko se znaménkem +mapu přiblížíte, kliknutím na zelené tlačítko se znaménkem – mapu oddálíte a kliknutím na zelené šipky přejdete na sousední mapy.


METAR-TAF: